KFTK/FTK METAR and TAF weather

Enter ICAO airport designator
Station Type Date Time Source
KFTK METAR 2022/01/23 11:33 UTC NOAA

KFTK 231133Z AUTO 19010KT 10SM FEW085 BKN140 M05/M09 A3000 RMK AO2 SLP170 57033 FZRANO $


Station Type Date Time Source
KFTK Decoded METAR 2022/01/23 11:33 UTC NOAA

Fort Knox, KY, United States (KFTK) 37-54N 085-58W 230M
Jan 23, 2022 - 06:33 AM EST / 2022.01.23 1133 UTC
Wind: from the S (190 degrees) at 12 MPH (10 KT):0
Visibility: 10 mile(s):0
Sky conditions: mostly cloudy
Temperature: 23 F (-5 C)
Windchill: 12 F (-11 C):1
Dew Point: 15 F (-9 C)
Relative Humidity: 73%
Pressure (altimeter): 30 in. Hg (1015 hPa)
Pressure tendency: 0.10 inches (3.3 hPa) lower than three hours ago
ob: KFTK 231133Z AUTO 19010KT 10SM FEW085 BKN140 M05/M09 A3000 RMK AO2 SLP170 57033 FZRANO
cycle: 11

Station Type Date Time Source
KFTK TAF 2022/01/21 20:09 UTC NOAA

TAF TAF KFTK 212000Z 2120/2302 35010KT 9999 SCT035 QNH3042INS
BECMG 2122/2123 03006KT 9999 FEW035 QNH3040INS TXM02/2120Z TNM08/2214Z LAST NO
AMDS AFT 2204 NEXT 2412

Example: see airport list